Time;durP1;ratioP1;P1;durP2;ratioP2;P2;SDS_P1;SDS_P2;PMS_P1;PMS_P2;Temp;Humidity;BMP_temperature;BMP_pressure;BME280_temperature;BME280_humidity;BME280_pressure;Samples;Min_cycle;Max_cycle;Signal;HPM_P1;HPM_P2
2022/01/26 00:00:05;;;;;;;8.55;2.22;;;18.20;58.80;;;;;;6283266;22;20201;-80
2022/01/26 00:07:58;;;;;;;7.60;1.92;;;18.10;58.90;;;;;;6260392;22;20181;-79
2022/01/26 00:10:25;;;;;;;6.13;1.55;;;18.10;58.80;;;;;;6307787;22;20618;-80
2022/01/26 00:12:52;;;;;;;7.43;2.35;;;18.10;58.70;;;;;;6254284;22;20161;-79
2022/01/26 00:15:19;;;;;;;4.72;2.20;;;18.10;58.50;;;;;;6254095;22;20152;-79
2022/01/26 00:17:45;;;;;;;7.90;2.05;;;18.10;58.70;;;;;;6228799;22;20174;-80
2022/01/26 00:20:23;;;;;;;6.55;1.88;;;18.10;58.80;;;;;;6254293;22;20205;-78
2022/01/26 00:25:46;;;;;;;7.18;1.95;;;18.10;58.90;;;;;;6241835;22;20152;-80
2022/01/26 00:39:02;;;;;;;8.20;2.30;;;18.10;58.60;;;;;;6260870;22;20531;-79
2022/01/26 00:41:36;;;;;;;6.82;1.55;;;18.10;58.40;;;;;;6254897;22;20152;-80
2022/01/26 00:44:01;;;;;;;4.25;1.60;;;18.10;58.50;;;;;;6307408;22;20221;-79
2022/01/26 00:46:29;;;;;;;7.28;2.03;;;18.10;58.50;;;;;;6254607;22;20458;-79
2022/01/26 00:48:57;;;;;;;7.20;1.77;;;18.00;58.30;;;;;;6228900;22;20156;-81
2022/01/26 00:51:25;;;;;;;4.28;1.70;;;18.10;58.80;;;;;;6254179;22;20155;-80
2022/01/26 00:54:02;;;;;;;7.57;2.08;;;18.10;58.40;;;;;;6254227;22;20227;-79
2022/01/26 00:56:30;;;;;;;8.90;1.90;;;18.10;58.30;;;;;;6258472;22;20235;-80
2022/01/26 00:58:58;;;;;;;8.48;1.80;;;18.10;58.50;;;;;;6228627;22;20199;-79
2022/01/26 01:01:25;;;;;;;6.40;1.65;;;18.10;58.50;;;;;;6254005;22;20154;-79
2022/01/26 01:03:53;;;;;;;5.85;1.85;;;18.10;58.30;;;;;;6228571;22;20594;-79
2022/01/26 01:06:26;;;;;;;3.88;1.58;;;18.00;58.40;;;;;;6228989;22;20226;-79
2022/01/26 01:08:56;;;;;;;7.32;1.63;;;18.00;58.50;;;;;;6256455;22;20148;-79
2022/01/26 01:11:24;;;;;;;10.32;1.85;;;18.00;58.20;;;;;;6255437;22;20567;-79
2022/01/26 01:13:51;;;;;;;4.07;1.75;;;18.00;57.80;;;;;;6254343;22;20156;-80
2022/01/26 01:16:21;;;;;;;6.00;1.60;;;18.00;58.20;;;;;;6255796;22;20230;-80
2022/01/26 01:29:45;;;;;;;4.65;1.35;;;18.00;58.00;;;;;;6261579;22;20242;-79
2022/01/26 01:32:16;;;;;;;8.93;1.95;;;18.00;58.00;;;;;;6257753;22;20158;-80
2022/01/26 01:34:43;;;;;;;5.05;1.58;;;18.00;58.40;;;;;;6257198;22;20266;-79
2022/01/26 01:37:15;;;;;;;8.30;1.85;;;18.00;58.20;;;;;;6256033;22;20636;-80
2022/01/26 01:39:42;;;;;;;5.93;1.55;;;18.00;58.10;;;;;;6233536;22;20158;-80
2022/01/26 01:42:09;;;;;;;5.55;1.55;;;18.00;57.90;;;;;;6229907;22;20179;-80
2022/01/26 01:44:37;;;;;;;5.80;1.77;;;18.10;58.20;;;;;;6255348;22;20587;-80
2022/01/26 01:47:05;;;;;;;5.50;1.73;;;18.00;58.20;;;;;;6230803;22;20171;-80
2022/01/26 01:49:32;;;;;;;4.43;1.80;;;18.00;57.90;;;;;;6256080;22;20152;-79
2022/01/26 01:52:03;;;;;;;2.97;1.30;;;18.00;57.80;;;;;;6255743;22;20152;-80
2022/01/26 01:54:30;;;;;;;5.18;1.77;;;18.00;57.70;;;;;;6257470;22;20144;-80
2022/01/26 01:56:58;;;;;;;5.80;1.85;;;18.00;57.90;;;;;;6255717;22;20148;-80
2022/01/26 01:59:26;;;;;;;4.25;1.77;;;18.00;57.70;;;;;;6228580;23;20199;-79
2022/01/26 02:01:52;;;;;;;9.88;2.05;;;18.00;58.00;;;;;;6152257;23;20139;-81
2022/01/26 02:04:18;;;;;;;3.20;1.75;;;18.00;58.20;;;;;;6255272;22;20176;-80
2022/01/26 02:06:49;;;;;;;6.07;1.85;;;18.00;57.90;;;;;;6152486;23;20136;-80
2022/01/26 02:09:19;;;;;;;3.50;1.63;;;17.90;58.30;;;;;;6229273;23;20162;-80
2022/01/26 02:11:52;;;;;;;3.60;1.65;;;17.90;57.90;;;;;;6229240;23;20190;-79
2022/01/26 02:14:27;;;;;;;6.32;1.60;;;17.90;57.80;;;;;;6229405;22;20518;-80
2022/01/26 02:17:28;;;;;;;7.90;1.98;;;17.90;57.80;;;;;;6225760;23;20151;-79
2022/01/26 02:20:07;;;;;;;4.32;1.85;;;17.90;58.10;;;;;;6195609;22;20151;-81
2022/01/26 02:49:53;;;;;;;4.65;1.80;;;17.80;58.20;;;;;;6221032;23;20544;-79
2022/01/26 02:52:36;;;;;;;6.35;1.80;;;17.80;58.40;;;;;;6216472;23;20174;-79
2022/01/26 02:58:04;;;;;;;2.78;1.35;;;17.80;58.30;;;;;;6213528;23;20604;-80
2022/01/26 03:00:58;;;;;;;5.15;1.60;;;17.80;58.10;;;;;;6122569;23;20156;-79
2022/01/26 03:03:20;;;;;;;5.70;1.63;;;17.80;57.40;;;;;;6164910;23;20180;-78
2022/01/26 03:05:53;;;;;;;4.95;1.40;;;17.80;58.50;;;;;;6147768;23;20488;-79
2022/01/26 03:08:28;;;;;;;4.50;1.33;;;17.80;57.60;;;;;;6122902;23;20167;-80
2022/01/26 03:10:59;;;;;;;6.03;1.92;;;17.80;58.00;;;;;;6122536;23;20132;-79
2022/01/26 03:13:30;;;;;;;4.35;1.67;;;17.80;57.60;;;;;;6171712;23;20206;-80
2022/01/26 03:16:04;;;;;;;4.07;1.70;;;17.80;57.90;;;;;;6172023;23;20192;-79
2022/01/26 03:18:55;;;;;;;6.65;1.77;;;17.80;58.50;;;;;;6170783;23;20157;-79
2022/01/26 03:21:27;;;;;;;6.32;1.40;;;17.70;58.00;;;;;;6164944;23;20152;-79
2022/01/26 03:29:27;;;;;;;4.70;1.95;;;17.70;58.20;;;;;;6168111;23;20160;-79
2022/01/26 03:32:38;;;;;;;3.75;1.50;;;17.70;58.30;;;;;;6167588;23;20152;-80
2022/01/26 03:34:51;;;;;;;6.07;1.73;;;17.70;57.90;;;;;;6165001;23;20187;-79
2022/01/26 03:37:23;;;;;;;3.85;1.40;;;17.70;58.00;;;;;;6153999;23;20525;-79
2022/01/26 03:39:52;;;;;;;3.58;1.40;;;17.70;57.80;;;;;;6148590;23;20152;-78
2022/01/26 03:42:20;;;;;;;5.57;1.52;;;17.80;57.70;;;;;;6149536;23;20205;-80
2022/01/26 03:44:48;;;;;;;3.55;1.30;;;17.70;57.90;;;;;;6173179;23;20157;-79
2022/01/26 03:47:15;;;;;;;4.35;1.48;;;17.80;58.00;;;;;;6173487;23;20152;-80
2022/01/26 03:49:43;;;;;;;2.42;1.30;;;17.70;58.00;;;;;;6148894;23;20213;-80
2022/01/26 03:52:11;;;;;;;3.53;1.50;;;17.70;57.70;;;;;;6173546;23;20511;-79
2022/01/26 03:54:39;;;;;;;4.90;1.55;;;17.70;57.80;;;;;;6173480;23;20160;-80
2022/01/26 03:57:04;;;;;;;6.60;1.52;;;17.70;58.00;;;;;;6176964;22;20161;-80
2022/01/26 03:59:32;;;;;;;5.50;1.85;;;17.70;58.30;;;;;;6281228;22;20142;-81
2022/01/26 04:01:59;;;;;;;3.85;1.80;;;17.70;57.80;;;;;;6254833;22;20148;-79
2022/01/26 04:04:30;;;;;;;6.53;1.52;;;17.70;57.60;;;;;;6228942;22;20194;-80
2022/01/26 04:07:00;;;;;;;5.60;1.67;;;17.70;58.00;;;;;;6256264;22;20155;-79
2022/01/26 04:09:27;;;;;;;4.53;1.60;;;17.70;58.40;;;;;;6255501;22;20148;-79
2022/01/26 04:11:54;;;;;;;4.03;1.52;;;17.60;58.20;;;;;;6203822;22;20483;-79
2022/01/26 04:14:26;;;;;;;3.60;1.40;;;17.70;58.20;;;;;;6254304;22;20530;-79
2022/01/26 04:16:54;;;;;;;5.10;1.58;;;17.60;57.80;;;;;;6256706;22;20152;-80
2022/01/26 04:19:20;;;;;;;6.82;1.90;;;17.70;58.00;;;;;;6253669;22;20593;-79
2022/01/26 04:22:06;;;;;;;5.50;1.70;;;17.60;58.10;;;;;;6280852;22;20128;-81
2022/01/26 04:24:39;;;;;;;4.25;1.98;;;17.70;57.70;;;;;;6262327;22;20160;-79
2022/01/26 04:27:31;;;;;;;3.92;1.67;;;17.70;57.60;;;;;;6257399;22;20159;-80
2022/01/26 04:29:52;;;;;;;4.93;1.95;;;17.70;57.80;;;;;;6308233;22;20155;-81
2022/01/26 04:32:18;;;;;;;4.47;1.40;;;17.60;58.30;;;;;;6254264;22;20148;-80
2022/01/26 04:34:48;;;;;;;5.78;1.80;;;17.60;58.10;;;;;;6307685;22;20135;-80
2022/01/26 04:37:30;;;;;;;4.70;1.77;;;17.60;58.00;;;;;;6254930;22;20155;-80
2022/01/26 04:40:02;;;;;;;4.97;1.90;;;17.60;57.60;;;;;;6260260;22;20235;-79
2022/01/26 04:45:09;;;;;;;4.75;1.60;;;17.60;57.70;;;;;;6282699;22;20586;-79
2022/01/26 04:47:37;;;;;;;5.90;1.50;;;17.70;58.20;;;;;;6255627;22;20148;-80
2022/01/26 04:50:06;;;;;;;3.75;1.33;;;17.60;57.60;;;;;;6254316;22;20666;-79
2022/01/26 04:52:34;;;;;;;2.83;1.50;;;17.60;57.50;;;;;;6254486;22;20156;-80
2022/01/26 04:54:59;;;;;;;4.07;1.67;;;17.60;57.80;;;;;;6254046;22;20147;-80
2022/01/26 04:57:25;;;;;;;4.13;1.42;;;17.60;58.40;;;;;;6307046;22;20245;-80
2022/01/26 04:59:52;;;;;;;4.85;1.50;;;17.60;57.50;;;;;;6307207;22;20132;-80
2022/01/26 05:02:20;;;;;;;5.97;1.60;;;17.60;58.30;;;;;;6254067;22;20152;-79
2022/01/26 05:04:47;;;;;;;3.80;1.73;;;17.60;57.60;;;;;;6228590;22;20465;-80
2022/01/26 05:07:14;;;;;;;5.63;1.77;;;17.50;58.40;;;;;;6228587;22;20234;-80
2022/01/26 05:09:41;;;;;;;4.30;1.23;;;17.50;58.00;;;;;;6253999;22;20205;-79
2022/01/26 05:12:08;;;;;;;2.67;1.42;;;17.50;58.30;;;;;;6253939;22;20151;-80
2022/01/26 05:14:35;;;;;;;4.40;1.40;;;17.50;58.10;;;;;;6255121;22;20129;-79
2022/01/26 05:17:02;;;;;;;5.05;1.70;;;17.60;58.30;;;;;;6253631;22;20162;-79
2022/01/26 05:19:29;;;;;;;3.67;1.63;;;17.50;58.40;;;;;;6254080;22;20258;-79
2022/01/26 05:21:55;;;;;;;2.97;1.52;;;17.50;58.40;;;;;;6254847;22;20231;-79
2022/01/26 05:24:22;;;;;;;6.32;1.88;;;17.60;58.10;;;;;;6253706;22;20522;-80
2022/01/26 05:26:49;;;;;;;2.45;1.55;;;17.60;58.00;;;;;;6228449;22;20156;-80
2022/01/26 05:29:15;;;;;;;2.40;1.23;;;17.60;57.90;;;;;;6307461;22;20139;-81
2022/01/26 05:31:40;;;;;;;4.13;1.50;;;17.60;57.40;;;;;;6307121;22;20132;-79
2022/01/26 05:34:08;;;;;;;3.22;1.50;;;17.60;57.70;;;;;;6254526;22;20551;-81
2022/01/26 05:36:35;;;;;;;2.50;1.40;;;17.70;57.60;;;;;;6253805;22;20239;-80
2022/01/26 05:39:03;;;;;;;3.30;1.25;;;17.70;57.20;;;;;;6254058;22;20227;-80
2022/01/26 05:41:30;;;;;;;2.80;1.38;;;17.70;57.50;;;;;;6203390;22;20148;-80
2022/01/26 05:43:58;;;;;;;3.83;1.27;;;17.70;57.20;;;;;;6253675;22;20258;-79
2022/01/26 05:46:34;;;;;;;4.57;1.30;;;17.70;56.90;;;;;;6228477;22;20217;-80
2022/01/26 05:49:01;;;;;;;3.75;1.40;;;17.80;57.00;;;;;;6258368;22;20144;-80
2022/01/26 05:51:32;;;;;;;1.98;1.20;;;17.80;56.70;;;;;;6253708;22;20155;-79
2022/01/26 05:53:59;;;;;;;4.75;1.48;;;17.80;56.80;;;;;;6254952;22;20464;-79
2022/01/26 05:56:26;;;;;;;3.80;1.33;;;17.80;56.20;;;;;;6253601;22;20179;-80
2022/01/26 05:58:53;;;;;;;4.78;1.40;;;17.90;56.60;;;;;;6201816;22;20252;-80
2022/01/26 06:01:21;;;;;;;2.95;1.42;;;17.80;56.50;;;;;;6202582;22;20459;-79
2022/01/26 06:03:47;;;;;;;2.75;1.40;;;17.90;56.10;;;;;;6228431;23;20194;-80
2022/01/26 06:06:16;;;;;;;1.90;1.10;;;17.90;56.40;;;;;;6204335;22;20151;-80
2022/01/26 06:08:43;;;;;;;2.78;1.52;;;17.90;56.20;;;;;;6203813;22;20162;-80
2022/01/26 06:11:11;;;;;;;4.43;1.38;;;17.90;56.10;;;;;;6204126;22;20155;-80
2022/01/26 06:13:39;;;;;;;4.57;1.40;;;17.90;56.00;;;;;;6228984;23;20621;-79
2022/01/26 06:16:07;;;;;;;3.65;1.42;;;17.90;56.20;;;;;;6229540;23;20151;-80
2022/01/26 06:18:35;;;;;;;2.40;1.40;;;17.90;56.10;;;;;;6229302;23;20155;-81
2022/01/26 06:21:03;;;;;;;2.97;1.23;;;17.90;55.90;;;;;;6204476;22;20170;-80
2022/01/26 06:23:31;;;;;;;3.28;1.67;;;17.90;55.80;;;;;;6229740;23;20191;-79
2022/01/26 06:25:58;;;;;;;2.95;1.30;;;17.90;55.70;;;;;;6229028;23;20152;-81
2022/01/26 06:28:26;;;;;;;3.05;0.93;;;17.90;55.50;;;;;;6229184;23;20459;-79
2022/01/26 06:30:56;;;;;;;2.17;1.10;;;18.00;55.40;;;;;;6253327;22;20132;-79
2022/01/26 06:33:26;;;;;;;2.38;1.25;;;18.00;55.40;;;;;;6204406;22;20212;-80
2022/01/26 06:35:51;;;;;;;3.17;1.10;;;18.00;55.40;;;;;;6228232;23;20214;-79
2022/01/26 06:38:17;;;;;;;2.63;1.30;;;18.00;55.20;;;;;;6152651;23;20605;-79
2022/01/26 06:40:43;;;;;;;1.90;1.33;;;18.00;55.30;;;;;;6152117;23;20131;-80
2022/01/26 06:43:14;;;;;;;3.38;1.50;;;18.00;54.70;;;;;;6152271;23;20544;-80
2022/01/26 06:45:48;;;;;;;2.67;1.40;;;18.00;54.90;;;;;;6152261;23;20598;-79
2022/01/26 06:48:39;;;;;;;3.58;1.50;;;18.10;55.30;;;;;;6151905;23;20213;-80
2022/01/26 06:51:00;;;;;;;1.83;1.25;;;18.10;54.80;;;;;;6152183;22;20154;-80
2022/01/26 06:53:26;;;;;;;3.45;1.40;;;18.10;55.30;;;;;;6254908;22;20138;-80
2022/01/26 06:55:52;;;;;;;2.22;1.15;;;18.10;54.90;;;;;;6152385;23;20575;-80
2022/01/26 06:58:18;;;;;;;2.05;1.25;;;18.10;55.20;;;;;;6242530;22;20187;-80
2022/01/26 07:00:54;;;;;;;2.28;1.40;;;18.10;54.60;;;;;;6174512;23;20593;-81
2022/01/26 07:03:20;;;;;;;2.03;1.17;;;18.10;55.00;;;;;;6174286;23;20623;-80
2022/01/26 07:06:00;;;;;;;2.58;1.30;;;18.10;54.90;;;;;;6123046;23;20136;-79
2022/01/26 07:08:25;;;;;;;1.58;1.10;;;18.10;55.00;;;;;;6149044;23;20249;-80
2022/01/26 07:11:00;;;;;;;2.40;1.25;;;18.10;54.60;;;;;;6122043;23;20136;-83
2022/01/26 07:13:27;;;;;;;4.20;1.40;;;18.10;54.90;;;;;;6196723;23;20166;-81
2022/01/26 07:21:27;;;;;;;1.90;1.15;;;18.20;54.90;;;;;;6214105;23;20164;-82
2022/01/26 07:23:54;;;;;;;3.17;1.15;;;18.20;54.90;;;;;;6151753;23;20195;-82
2022/01/26 07:26:20;;;;;;;2.67;1.27;;;18.10;54.90;;;;;;6199438;23;20136;-82
2022/01/26 07:28:46;;;;;;;3.20;1.33;;;18.20;54.60;;;;;;6199214;23;20140;-82
2022/01/26 07:31:13;;;;;;;2.47;1.02;;;18.10;54.80;;;;;;6175780;23;20231;-84
2022/01/26 07:33:41;;;;;;;3.60;1.33;;;18.20;54.60;;;;;;6150855;23;20160;-83
2022/01/26 07:36:07;;;;;;;2.22;1.20;;;18.20;54.00;;;;;;6131159;23;20181;-82
2022/01/26 07:38:35;;;;;;;2.83;1.05;;;18.20;53.40;;;;;;6175513;23;20174;-83
2022/01/26 07:41:01;;;;;;;2.13;1.10;;;18.30;53.90;;;;;;6225639;23;20635;-81
2022/01/26 07:43:27;;;;;;;2.40;1.10;;;18.20;53.80;;;;;;6124029;23;20194;-82
2022/01/26 07:45:53;;;;;;;1.80;1.20;;;18.30;53.50;;;;;;6224647;23;20136;-80
2022/01/26 07:48:19;;;;;;;3.50;1.20;;;18.20;54.70;;;;;;6199920;23;20635;-81
2022/01/26 07:50:45;;;;;;;2.08;1.20;;;18.30;53.70;;;;;;6123798;23;20552;-80
2022/01/26 07:53:16;;;;;;;3.17;1.20;;;18.30;53.50;;;;;;6122275;23;20613;-80
2022/01/26 07:55:42;;;;;;;1.92;1.20;;;18.30;54.10;;;;;;6223615;23;20571;-85
2022/01/26 07:58:09;;;;;;;4.22;1.10;;;18.40;54.20;;;;;;6198238;22;20665;-84
2022/01/26 08:00:35;;;;;;;1.80;1.10;;;18.30;54.30;;;;;;6224078;23;20215;-81
2022/01/26 08:03:01;;;;;;;2.78;1.40;;;18.30;54.00;;;;;;6123738;23;20202;-81
2022/01/26 08:05:27;;;;;;;1.35;1.08;;;18.40;53.90;;;;;;6226961;23;20136;-81
2022/01/26 08:07:53;;;;;;;1.20;1.10;;;18.40;54.20;;;;;;6224591;23;20140;-82
2022/01/26 08:10:20;;;;;;;2.20;1.20;;;18.40;54.00;;;;;;6198185;23;20671;-83
2022/01/26 08:12:45;;;;;;;2.47;1.30;;;18.40;54.50;;;;;;6221587;23;20137;-84
2022/01/26 08:15:11;;;;;;;3.85;1.27;;;18.40;54.70;;;;;;6197276;23;20210;-82
2022/01/26 08:17:38;;;;;;;2.88;1.35;;;18.40;54.20;;;;;;6199135;23;20140;-83
2022/01/26 08:20:05;;;;;;;2.67;1.35;;;18.40;54.60;;;;;;6198423;23;20200;-81
2022/01/26 08:22:32;;;;;;;2.63;1.30;;;18.50;54.50;;;;;;6198568;23;20226;-81
2022/01/26 08:25:00;;;;;;;2.08;1.10;;;18.40;54.30;;;;;;6223839;23;20212;-82
2022/01/26 08:27:29;;;;;;;2.33;1.10;;;18.40;54.90;;;;;;6221766;23;20659;-81
2022/01/26 08:30:02;;;;;;;2.05;1.25;;;18.30;54.50;;;;;;6199907;23;20179;-82
2022/01/26 08:32:29;;;;;;;2.10;1.40;;;18.40;54.30;;;;;;6217148;23;20131;-81
2022/01/26 08:34:55;;;;;;;2.80;1.33;;;18.40;53.90;;;;;;6200606;23;20172;-83
2022/01/26 08:37:20;;;;;;;4.05;1.58;;;18.40;54.20;;;;;;6224637;23;20135;-81
2022/01/26 08:39:46;;;;;;;2.28;1.10;;;18.40;54.10;;;;;;6223942;23;20570;-84
2022/01/26 08:42:12;;;;;;;3.00;1.38;;;18.50;53.70;;;;;;6224638;23;20159;-83
2022/01/26 08:44:37;;;;;;;3.70;1.50;;;18.50;54.10;;;;;;6223552;23;20152;-84
2022/01/26 08:47:04;;;;;;;3.47;1.25;;;18.50;53.60;;;;;;6121934;23;20185;-81
2022/01/26 08:49:30;;;;;;;8.98;1.50;;;18.50;54.40;;;;;;6222828;23;20460;-81
2022/01/26 08:51:56;;;;;;;4.80;1.38;;;18.50;54.50;;;;;;6223441;23;20187;-81
2022/01/26 08:54:22;;;;;;;3.42;1.35;;;18.40;54.30;;;;;;6198246;23;20151;-83
2022/01/26 08:56:50;;;;;;;3.92;1.30;;;18.60;54.20;;;;;;6121690;23;20139;-82
2022/01/26 08:59:17;;;;;;;4.22;1.50;;;18.60;54.40;;;;;;6197462;23;20253;-80
2022/01/26 09:01:43;;;;;;;3.13;1.45;;;18.50;54.30;;;;;;6221584;23;20152;-80
2022/01/26 09:04:09;;;;;;;4.13;1.58;;;18.50;54.40;;;;;;6222853;23;20171;-82
2022/01/26 09:06:39;;;;;;;4.45;1.30;;;18.60;54.10;;;;;;6222948;23;20214;-81
2022/01/26 09:09:07;;;;;;;3.17;1.40;;;18.60;54.40;;;;;;6175436;23;20201;-81
2022/01/26 09:11:36;;;;;;;5.82;1.20;;;18.60;54.30;;;;;;6225477;23;20202;-81
2022/01/26 09:14:07;;;;;;;3.40;1.60;;;18.60;54.20;;;;;;6224385;23;20190;-82
2022/01/26 09:16:36;;;;;;;6.40;1.45;;;18.60;54.20;;;;;;6219038;23;20219;-81
2022/01/26 09:19:11;;;;;;;3.83;1.25;;;18.70;54.40;;;;;;6202276;23;20140;-81
2022/01/26 09:21:36;;;;;;;5.32;1.38;;;18.60;54.30;;;;;;6216161;23;20128;-82
2022/01/26 09:24:03;;;;;;;2.65;1.10;;;18.70;54.60;;;;;;6225474;23;20233;-81
2022/01/26 09:26:28;;;;;;;2.95;1.30;;;18.60;54.50;;;;;;6171982;23;20148;-81
2022/01/26 09:28:54;;;;;;;5.60;1.58;;;18.60;54.90;;;;;;6223703;23;20187;-83
2022/01/26 09:31:20;;;;;;;4.38;1.25;;;18.60;54.60;;;;;;6199355;23;20543;-81
2022/01/26 09:33:45;;;;;;;1.65;1.10;;;18.70;54.50;;;;;;6122446;23;20518;-80
2022/01/26 09:36:11;;;;;;;5.25;1.63;;;18.70;54.40;;;;;;6200530;23;20156;-82
2022/01/26 09:38:48;;;;;;;5.30;1.40;;;18.70;54.20;;;;;;6201621;23;20221;-82
2022/01/26 09:41:15;;;;;;;2.55;1.30;;;18.70;54.20;;;;;;6174272;23;20213;-81
2022/01/26 09:43:40;;;;;;;6.47;1.48;;;18.70;54.10;;;;;;6124698;23;20486;-81
2022/01/26 09:46:06;;;;;;;10.85;1.80;;;18.70;54.90;;;;;;6224630;23;20147;-80
2022/01/26 09:48:34;;;;;;;8.15;1.63;;;18.70;54.20;;;;;;6198096;23;20156;-80
2022/01/26 09:50:59;;;;;;;11.57;1.75;;;18.70;55.00;;;;;;6198720;23;20234;-79
2022/01/26 09:53:32;;;;;;;11.15;2.05;;;18.70;54.20;;;;;;6175082;23;20570;-83
2022/01/26 09:56:01;;;;;;;10.10;1.58;;;18.70;54.30;;;;;;6123402;23;20133;-81
2022/01/26 09:58:28;;;;;;;6.13;1.48;;;18.70;54.30;;;;;;6134495;23;20234;-83
2022/01/26 10:01:04;;;;;;;8.20;1.38;;;18.70;54.60;;;;;;6227651;23;20644;-84
2022/01/26 10:03:36;;;;;;;7.57;1.92;;;18.70;54.40;;;;;;6200513;23;20187;-81
2022/01/26 10:06:07;;;;;;;9.52;1.80;;;18.80;54.70;;;;;;6194478;23;20157;-81
2022/01/26 10:08:56;;;;;;;6.25;1.60;;;18.80;54.80;;;;;;6221839;23;20240;-82
2022/01/26 10:17:23;;;;;;;8.25;1.40;;;18.70;55.10;;;;;;6201792;23;20152;-84
2022/01/26 10:19:54;;;;;;;6.70;1.52;;;18.80;54.60;;;;;;6203007;23;20174;-83
2022/01/26 10:22:32;;;;;;;6.82;1.50;;;18.80;54.10;;;;;;6170067;23;20141;-83
2022/01/26 10:25:10;;;;;;;6.43;1.77;;;18.80;54.40;;;;;;6195976;23;20149;-85
2022/01/26 10:27:42;;;;;;;4.07;1.40;;;18.80;54.40;;;;;;6196322;23;20145;-83
2022/01/26 10:30:09;;;;;;;6.80;1.60;;;18.80;54.30;;;;;;6195231;23;20196;-83
2022/01/26 10:32:36;;;;;;;5.38;1.50;;;18.70;54.00;;;;;;6193722;23;20172;-82
2022/01/26 10:35:04;;;;;;;4.15;1.60;;;18.80;54.10;;;;;;6160656;23;20155;-82
2022/01/26 10:37:32;;;;;;;5.28;1.45;;;18.80;53.60;;;;;;6131474;23;20212;-83
2022/01/26 10:40:14;;;;;;;4.68;1.30;;;18.80;54.10;;;;;;6165341;23;20153;-82
2022/01/26 10:43:04;;;;;;;4.30;1.40;;;18.80;54.10;;;;;;6190955;23;20166;-82
2022/01/26 10:45:37;;;;;;;2.58;1.30;;;18.80;54.10;;;;;;6154841;23;20151;-83
2022/01/26 10:48:15;;;;;;;5.38;1.58;;;18.80;54.20;;;;;;6129971;23;20233;-83
2022/01/26 10:53:09;;;;;;;3.28;1.50;;;18.80;54.20;;;;;;6129982;23;20211;-82
2022/01/26 10:55:36;;;;;;;2.70;1.27;;;18.80;54.00;;;;;;6105181;23;20202;-82
2022/01/26 10:58:02;;;;;;;4.65;1.52;;;18.90;53.90;;;;;;6138383;23;20201;-82
2022/01/26 11:00:30;;;;;;;4.13;1.30;;;18.80;54.30;;;;;;6134707;23;20154;-82
2022/01/26 11:02:57;;;;;;;3.55;1.45;;;18.80;54.40;;;;;;6133889;23;20174;-82
2022/01/26 11:05:24;;;;;;;5.50;1.50;;;18.80;54.30;;;;;;6110861;23;20497;-84
2022/01/26 11:07:50;;;;;;;3.63;1.20;;;18.80;54.40;;;;;;6134029;23;20602;-83
2022/01/26 11:10:16;;;;;;;3.50;1.30;;;18.80;54.20;;;;;;6135028;23;20147;-83
2022/01/26 11:12:42;;;;;;;4.88;1.45;;;18.90;54.20;;;;;;6147215;23;20153;-83
2022/01/26 11:15:11;;;;;;;4.57;1.55;;;18.80;54.30;;;;;;6219593;23;20232;-83
2022/01/26 11:17:38;;;;;;;6.35;1.63;;;18.90;54.30;;;;;;6252877;22;20151;-82
2022/01/26 11:20:29;;;;;;;2.17;1.15;;;18.80;54.40;;;;;;6255421;22;20155;-81
2022/01/26 11:22:57;;;;;;;2.60;1.02;;;18.80;54.00;;;;;;6152793;23;20171;-82
2022/01/26 11:25:24;;;;;;;3.42;1.40;;;18.90;55.00;;;;;;6254513;22;20152;-82
2022/01/26 11:27:51;;;;;;;3.17;1.27;;;18.90;54.30;;;;;;6152018;23;20455;-82
2022/01/26 11:30:32;;;;;;;1.88;1.10;;;18.80;54.30;;;;;;6253669;22;20136;-83
2022/01/26 11:33:04;;;;;;;2.80;1.35;;;18.90;54.20;;;;;;6229194;23;20147;-83
2022/01/26 11:35:35;;;;;;;4.53;1.45;;;18.90;54.20;;;;;;6203997;22;20193;-83
2022/01/26 11:38:14;;;;;;;4.30;1.35;;;18.90;54.40;;;;;;6204794;22;20649;-83
2022/01/26 11:46:18;;;;;;;1.77;1.02;;;18.80;54.80;;;;;;6244112;22;20136;-83
2022/01/26 11:48:45;;;;;;;1.95;1.25;;;18.80;54.20;;;;;;6230125;22;20478;-80
2022/01/26 11:51:11;;;;;;;4.13;1.50;;;18.80;54.50;;;;;;6254104;22;20132;-82
2022/01/26 11:53:37;;;;;;;7.13;1.48;;;18.80;54.40;;;;;;6229880;23;20246;-81
2022/01/26 11:56:13;;;;;;;3.78;1.23;;;18.80;54.40;;;;;;6255338;22;20148;-81
2022/01/26 11:58:47;;;;;;;2.97;1.50;;;18.70;54.40;;;;;;6236989;22;20203;-83
2022/01/26 12:01:20;;;;;;;4.80;1.20;;;18.90;54.30;;;;;;6214604;23;20156;-82
2022/01/26 12:04:02;;;;;;;3.25;1.23;;;18.80;54.40;;;;;;6165687;23;20193;-83
2022/01/26 12:06:35;;;;;;;3.08;1.63;;;18.80;54.10;;;;;;6189237;23;20137;-83
2022/01/26 12:09:03;;;;;;;2.13;1.30;;;18.90;54.20;;;;;;6189156;23;20138;-84
2022/01/26 12:11:29;;;;;;;5.82;1.30;;;18.90;54.10;;;;;;6189631;23;20150;-82
2022/01/26 12:13:59;;;;;;;5.40;1.45;;;18.80;54.20;;;;;;6187521;23;20146;-80
2022/01/26 12:16:35;;;;;;;13.13;1.88;;;18.90;54.20;;;;;;6188108;23;20146;-81
2022/01/26 12:19:41;;;;;;;18.23;2.88;;;18.90;54.30;;;;;;6163639;23;20148;-81
2022/01/26 12:33:16;;;;;;;18.95;2.45;;;18.90;54.00;;;;;;6195089;23;20483;-81
2022/01/26 12:36:02;;;;;;;10.95;1.58;;;18.90;54.10;;;;;;6143829;23;20214;-83
2022/01/26 12:38:42;;;;;;;15.23;2.53;;;19.00;53.80;;;;;;6163787;23;20511;-83
2022/01/26 12:41:21;;;;;;;8.43;1.80;;;19.00;53.90;;;;;;6134352;23;20248;-84
2022/01/26 12:43:50;;;;;;;10.02;1.77;;;19.00;54.00;;;;;;6153968;23;20197;-81
2022/01/26 12:46:25;;;;;;;17.58;1.92;;;19.00;54.20;;;;;;6223817;23;20141;-83
2022/01/26 12:48:54;;;;;;;16.30;2.28;;;18.90;54.20;;;;;;6126058;23;20632;-81
2022/01/26 12:51:21;;;;;;;9.55;1.77;;;18.90;54.20;;;;;;6172823;23;20152;-82
2022/01/26 12:53:59;;;;;;;11.10;1.90;;;18.90;53.90;;;;;;6149748;23;20171;-81
2022/01/26 12:56:27;;;;;;;11.77;1.98;;;18.90;53.70;;;;;;6151201;23;20152;-81
2022/01/26 12:59:06;;;;;;;8.55;1.88;;;18.90;54.00;;;;;;6139144;23;20204;-82
2022/01/26 13:01:36;;;;;;;9.43;1.88;;;18.90;54.20;;;;;;6199119;23;20152;-86
2022/01/26 13:04:08;;;;;;;8.80;1.73;;;18.90;53.80;;;;;;6203012;23;20669;-85
2022/01/26 13:06:37;;;;;;;9.32;1.75;;;18.90;54.40;;;;;;6203902;23;20159;-82
2022/01/26 13:09:25;;;;;;;13.23;2.20;;;18.90;54.20;;;;;;6224891;23;20152;-83
2022/01/26 13:11:54;;;;;;;7.65;1.48;;;19.00;54.20;;;;;;6226772;23;20140;-86
2022/01/26 13:14:39;;;;;;;9.63;1.80;;;18.90;54.20;;;;;;6226164;23;20132;-85
2022/01/26 13:17:34;;;;;;;6.18;1.88;;;18.90;54.30;;;;;;6226760;23;20144;-83
2022/01/26 13:23:05;;;;;;;6.88;1.40;;;18.90;53.90;;;;;;6211877;23;20175;-83
2022/01/26 13:28:34;;;;;;;7.15;1.73;;;19.00;54.10;;;;;;6232609;22;20133;-84
2022/01/26 13:39:37;;;;;;;7.18;1.85;;;18.90;53.50;;;;;;6125462;23;20133;-83
2022/01/26 13:42:35;;;;;;;8.13;2.00;;;18.90;53.90;;;;;;6245467;22;20188;-83
2022/01/26 13:50:41;;;;;;;10.07;1.50;;;18.90;54.00;;;;;;6209760;23;20144;-80
2022/01/26 13:53:16;;;;;;;8.70;1.50;;;18.90;54.40;;;;;;6254479;22;20205;-81
2022/01/26 14:01:16;;;;;;;10.70;1.90;;;19.00;53.90;;;;;;6200614;23;20459;-81
2022/01/26 14:03:51;;;;;;;9.65;1.75;;;19.00;54.00;;;;;;6185617;23;20634;-80
2022/01/26 14:06:18;;;;;;;4.32;1.45;;;19.00;54.00;;;;;;6158381;23;20148;-81
2022/01/26 14:08:47;;;;;;;4.28;1.50;;;19.00;54.00;;;;;;6182313;23;20231;-82
2022/01/26 14:11:13;;;;;;;5.90;1.63;;;19.00;53.80;;;;;;6207352;23;20148;-83
2022/01/26 14:13:40;;;;;;;7.18;1.70;;;19.00;53.40;;;;;;6208997;23;20529;-81
2022/01/26 14:16:10;;;;;;;6.55;1.58;;;19.00;54.20;;;;;;6180321;23;20238;-83
2022/01/26 14:19:05;;;;;;;6.63;1.50;;;19.00;54.30;;;;;;6156172;23;20238;-82
2022/01/26 14:21:29;;;;;;;6.35;1.52;;;19.00;54.20;;;;;;6129920;23;20175;-82
2022/01/26 14:24:09;;;;;;;4.38;1.50;;;19.00;53.60;;;;;;6206877;23;20187;-81
2022/01/26 14:26:40;;;;;;;4.80;1.67;;;19.00;53.50;;;;;;6218034;23;20199;-82
2022/01/26 14:29:21;;;;;;;4.63;1.30;;;19.10;54.00;;;;;;6184278;23;20181;-83
2022/01/26 14:32:07;;;;;;;5.90;1.48;;;19.00;53.60;;;;;;6175251;23;20145;-84
2022/01/26 14:35:07;;;;;;;5.10;1.30;;;19.00;53.80;;;;;;6175219;23;20559;-82
2022/01/26 14:40:39;;;;;;;4.78;1.73;;;19.00;54.20;;;;;;6177523;23;20463;-82
2022/01/26 14:53:16;;;;;;;4.55;1.30;;;19.00;54.70;;;;;;6029357;23;20153;-81
2022/01/26 15:20:02;;;;;;;6.30;1.85;;;19.00;54.60;;;;;;6109653;23;20151;-81
2022/01/26 15:30:06;;;;;;;4.40;1.40;;;19.00;54.40;;;;;;6212732;23;20148;-82
2022/01/26 15:35:39;;;;;;;5.13;1.45;;;19.00;54.40;;;;;;6207791;23;20136;-81
2022/01/26 15:51:49;;;;;;;2.15;1.33;;;19.00;54.00;;;;;;6189656;23;20223;-81
2022/01/26 16:05:22;;;;;;;4.53;1.52;;;19.10;54.60;;;;;;6210841;23;20642;-81
2022/01/26 16:07:51;;;;;;;4.28;1.50;;;19.00;54.10;;;;;;6185595;23;20152;-81
2022/01/26 16:19:39;;;;;;;4.57;1.40;;;19.00;54.30;;;;;;6211934;23;20582;-80
2022/01/26 16:21:12;;;;;;;3.40;1.33;;;19.10;54.00;;;;;;6184993;23;20599;-80
2022/01/26 16:26:44;;;;;;;3.65;1.27;;;19.00;54.10;;;;;;6188504;23;20144;-80
2022/01/26 16:54:01;;;;;;;4.60;1.60;;;19.10;54.00;;;;;;6212856;23;20217;-81